createdAt,value
2019-02-20T00:00:49.121Z,0
2019-02-20T00:01:49.105Z,0
2019-02-20T00:02:48.822Z,0
2019-02-20T00:03:49.058Z,0
2019-02-20T00:04:49.133Z,0
2019-02-20T00:05:49.015Z,0
2019-02-20T00:06:49.017Z,0
2019-02-20T00:07:49.002Z,0
2019-02-20T00:08:48.724Z,0
2019-02-20T00:09:48.959Z,0
2019-02-20T00:10:48.951Z,0
2019-02-20T00:11:48.672Z,0
2019-02-20T00:12:48.915Z,0
2019-02-20T00:13:48.630Z,0
2019-02-20T00:14:48.860Z,0
2019-02-20T00:15:48.850Z,0
2019-02-20T00:16:48.826Z,0
2019-02-20T00:17:48.554Z,0
2019-02-20T00:18:48.797Z,0
2019-02-20T00:19:48.578Z,0
2019-02-20T00:20:48.779Z,0
2019-02-20T00:21:48.743Z,0
2019-02-20T00:22:48.717Z,0
2019-02-20T00:23:48.705Z,0
2019-02-20T00:24:48.435Z,0
2019-02-20T00:25:48.667Z,0
2019-02-20T00:26:48.644Z,0
2019-02-20T00:27:48.628Z,0
2019-02-20T00:28:48.609Z,0
2019-02-20T00:29:48.351Z,0
2019-02-20T00:30:48.337Z,0
2019-02-20T00:31:48.592Z,0
2019-02-20T00:32:48.295Z,0
2019-02-20T00:33:48.276Z,0
2019-02-20T00:34:48.511Z,0
2019-02-20T00:35:48.250Z,0
2019-02-20T00:36:48.242Z,0
2019-02-20T00:37:48.204Z,0
2019-02-20T00:38:48.435Z,0
2019-02-20T00:39:48.426Z,0
2019-02-20T00:40:48.395Z,0
2019-02-20T00:41:48.390Z,0
2019-02-20T00:42:48.369Z,0
2019-02-20T00:43:48.344Z,0
2019-02-20T00:44:48.330Z,0
2019-02-20T00:45:48.304Z,0
2019-02-20T00:46:48.042Z,0
2019-02-20T00:47:48.317Z,0
2019-02-20T00:48:48.253Z,0
2019-02-20T00:49:48.241Z,0
2019-02-20T00:50:48.224Z,0
2019-02-20T00:51:48.203Z,0
2019-02-20T00:52:56.805Z,0
2019-02-20T00:53:47.914Z,0
2019-02-20T00:54:48.171Z,0
2019-02-20T00:55:48.127Z,0
2019-02-20T00:56:48.127Z,0
2019-02-20T00:57:48.136Z,0
2019-02-20T00:58:48.113Z,0
2019-02-20T00:59:47.586Z,0
2019-02-20T01:00:48.045Z,0
2019-02-20T01:01:48.034Z,0
2019-02-20T01:02:48.007Z,0
2019-02-20T01:03:47.737Z,0
2019-02-20T01:04:47.979Z,0
2019-02-20T01:05:47.946Z,0
2019-02-20T01:06:50.130Z,0
2019-02-20T01:07:47.921Z,0
2019-02-20T01:08:47.651Z,0
2019-02-20T01:09:47.918Z,0
2019-02-20T01:10:47.610Z,0
2019-02-20T01:11:47.893Z,0
2019-02-20T01:12:47.326Z,0
2019-02-20T01:13:47.808Z,0
2019-02-20T01:14:47.564Z,0
2019-02-20T01:15:47.773Z,0
2019-02-20T01:16:47.307Z,0
2019-02-20T01:17:47.732Z,0
2019-02-20T01:18:47.741Z,0
2019-02-20T01:19:47.718Z,0
2019-02-20T01:20:47.810Z,0
2019-02-20T01:21:47.700Z,0
2019-02-20T01:22:47.643Z,0
2019-02-20T01:23:47.633Z,0
2019-02-20T01:24:47.618Z,0
2019-02-20T01:25:47.587Z,0
2019-02-20T01:26:47.325Z,0
2019-02-20T01:27:47.306Z,0
2019-02-20T01:28:47.534Z,0
2019-02-20T01:29:47.527Z,0
2019-02-20T01:30:47.267Z,0
2019-02-20T01:31:47.505Z,0
2019-02-20T01:32:47.501Z,0
2019-02-20T01:33:47.444Z,0
2019-02-20T01:34:47.445Z,0
2019-02-20T01:35:47.417Z,0
2019-02-20T01:36:47.390Z,0
2019-02-20T01:37:47.385Z,0
2019-02-20T01:38:47.358Z,0
2019-02-20T01:39:49.329Z,0
2019-02-20T01:40:47.315Z,0
2019-02-20T01:41:47.302Z,0
2019-02-20T01:42:47.306Z,0
2019-02-20T01:43:47.033Z,0
2019-02-20T01:44:47.247Z,0
2019-02-20T01:45:47.229Z,0
2019-02-20T01:46:47.204Z,0
2019-02-20T01:47:47.214Z,0
2019-02-20T01:48:47.200Z,0
2019-02-20T01:49:47.168Z,0
2019-02-20T01:50:47.135Z,0
2019-02-20T01:51:47.491Z,0
2019-02-20T01:52:46.863Z,0
2019-02-20T01:53:46.840Z,0
2019-02-20T01:54:47.120Z,0
2019-02-20T01:55:47.046Z,0
2019-02-20T01:56:47.037Z,0
2019-02-20T01:57:47.010Z,0
2019-02-20T01:58:46.782Z,0
2019-02-20T01:59:46.747Z,0
2019-02-20T02:00:46.741Z,0
2019-02-20T02:01:46.946Z,0
2019-02-20T02:02:46.967Z,0
2019-02-20T02:03:46.935Z,0
2019-02-20T02:04:46.632Z,0
2019-02-20T02:05:46.866Z,0
2019-02-20T02:06:46.849Z,0
2019-02-20T02:07:46.832Z,0
2019-02-20T02:08:46.805Z,0
2019-02-20T02:09:46.845Z,0
2019-02-20T02:10:46.781Z,0
2019-02-20T02:11:46.772Z,0
2019-02-20T02:12:46.747Z,0
2019-02-20T02:13:46.721Z,0
2019-02-20T02:14:46.728Z,0
2019-02-20T02:15:46.683Z,0
2019-02-20T02:16:46.671Z,0
2019-02-20T02:17:46.665Z,0
2019-02-20T02:18:46.626Z,0
2019-02-20T02:19:46.618Z,0
2019-02-20T02:20:46.598Z,0
2019-02-20T02:21:46.573Z,0
2019-02-20T02:22:46.317Z,0
2019-02-20T02:23:47.655Z,0
2019-02-20T02:24:46.548Z,0
2019-02-20T02:25:46.501Z,0
2019-02-20T02:26:46.494Z,0
2019-02-20T02:27:46.224Z,0
2019-02-20T02:28:46.213Z,0
2019-02-20T02:29:46.426Z,0
2019-02-20T02:30:46.189Z,0
2019-02-20T02:31:46.407Z,0
2019-02-20T02:32:46.397Z,0
2019-02-20T02:33:46.162Z,0
2019-02-20T02:34:46.375Z,0
2019-02-20T02:35:46.330Z,0
2019-02-20T02:36:46.311Z,0
2019-02-20T02:37:46.322Z,0
2019-02-20T02:38:46.293Z,0
2019-02-20T02:39:46.257Z,0
2019-02-20T02:40:46.272Z,0
2019-02-20T02:41:47.328Z,0
2019-02-20T02:42:45.947Z,0
2019-02-20T02:43:46.300Z,0
2019-02-20T02:44:46.168Z,0
2019-02-20T02:45:45.642Z,0
2019-02-20T02:46:46.273Z,0
2019-02-20T02:47:46.160Z,0
2019-02-20T02:48:46.117Z,0
2019-02-20T02:49:46.071Z,0
2019-02-20T02:50:46.082Z,0
2019-02-20T02:51:46.039Z,0
2019-02-20T02:52:45.529Z,0
2019-02-20T02:53:46.003Z,0
2019-02-20T02:54:46.007Z,0
2019-02-20T02:55:46.020Z,0
2019-02-20T02:56:45.977Z,0
2019-02-20T02:57:45.994Z,0
2019-02-20T02:58:45.908Z,0
2019-02-20T02:59:45.935Z,0
2019-02-20T03:00:45.874Z,0
2019-02-20T03:01:45.908Z,0
2019-02-20T03:02:45.594Z,0
2019-02-20T03:03:45.814Z,0
2019-02-20T03:04:45.809Z,0
2019-02-20T03:05:45.774Z,0
2019-02-20T03:06:45.833Z,0
2019-02-20T03:07:45.755Z,0
2019-02-20T03:08:45.729Z,0
2019-02-20T03:09:45.739Z,0
2019-02-20T03:10:45.688Z,0
2019-02-20T03:11:45.694Z,0
2019-02-20T03:12:45.419Z,0
2019-02-20T03:13:45.627Z,0
2019-02-20T03:14:45.623Z,0
2019-02-20T03:15:45.630Z,0
2019-02-20T03:16:45.586Z,0
2019-02-20T03:17:45.691Z,0
2019-02-20T03:18:45.309Z,0
2019-02-20T03:19:45.320Z,0
2019-02-20T03:20:45.260Z,0
2019-02-20T03:21:45.644Z,0
2019-02-20T03:22:45.473Z,0
2019-02-20T03:23:47.452Z,0
2019-02-20T03:24:45.186Z,0
2019-02-20T03:25:45.434Z,0
2019-02-20T03:26:45.400Z,0
2019-02-20T03:27:45.137Z,0
2019-02-20T03:28:47.156Z,0
2019-02-20T03:29:45.096Z,0
2019-02-20T03:30:45.373Z,0
2019-02-20T03:31:45.346Z,0
2019-02-20T03:32:45.315Z,0
2019-02-20T03:33:45.295Z,0
2019-02-20T03:34:45.258Z,0
2019-02-20T03:35:44.765Z,0
2019-02-20T03:36:44.965Z,0
2019-02-20T03:37:45.216Z,0
2019-02-20T03:38:44.951Z,0
2019-02-20T03:39:45.188Z,0
2019-02-20T03:40:45.138Z,0
2019-02-20T03:41:45.157Z,0
2019-02-20T03:42:45.109Z,0
2019-02-20T03:43:44.840Z,0
2019-02-20T03:44:45.099Z,0
2019-02-20T03:45:45.053Z,0
2019-02-20T03:46:45.039Z,0
2019-02-20T03:47:45.045Z,0
2019-02-20T03:48:45.005Z,0
2019-02-20T03:49:44.982Z,0
2019-02-20T03:50:44.987Z,0
2019-02-20T03:51:44.947Z,0
2019-02-20T03:52:44.924Z,0
2019-02-20T03:53:55.907Z,0
2019-02-20T03:54:44.642Z,0
2019-02-20T03:55:44.888Z,0
2019-02-20T03:56:44.880Z,0
2019-02-20T03:57:44.344Z,0
2019-02-20T03:58:44.817Z,0
2019-02-20T03:59:44.815Z,0
2019-02-20T04:00:44.823Z,0
2019-02-20T04:01:44.513Z,0
2019-02-20T04:02:44.742Z,0
2019-02-20T04:03:44.729Z,0
2019-02-20T04:04:44.708Z,0
2019-02-20T04:05:44.686Z,0
2019-02-20T04:06:44.669Z,0
2019-02-20T04:07:44.413Z,0
2019-02-20T04:08:44.645Z,0
2019-02-20T04:09:44.621Z,0
2019-02-20T04:10:44.715Z,0
2019-02-20T04:11:44.584Z,0
2019-02-20T04:12:44.566Z,0
2019-02-20T04:13:44.537Z,0
2019-02-20T04:14:44.550Z,0
2019-02-20T04:15:44.515Z,0
2019-02-20T04:16:44.500Z,0
2019-02-20T04:17:44.466Z,0
2019-02-20T04:18:44.227Z,0
2019-02-20T04:19:44.460Z,0
2019-02-20T04:20:44.470Z,0
2019-02-20T04:21:44.403Z,0
2019-02-20T04:22:44.181Z,0
2019-02-20T04:23:44.383Z,0
2019-02-20T04:24:44.355Z,0
2019-02-20T04:25:44.337Z,0
2019-02-20T04:26:44.065Z,0
2019-02-20T04:27:44.038Z,0
2019-02-20T04:28:44.280Z,0
2019-02-20T04:29:44.269Z,0
2019-02-20T04:30:44.257Z,0
2019-02-20T04:31:44.239Z,0
2019-02-20T04:32:44.202Z,0
2019-02-20T04:33:44.185Z,0
2019-02-20T04:34:44.239Z,0
2019-02-20T04:35:44.233Z,0
2019-02-20T04:36:44.128Z,0
2019-02-20T04:37:44.138Z,0
2019-02-20T04:38:44.093Z,0
2019-02-20T04:39:44.085Z,0
2019-02-20T04:40:44.064Z,0
2019-02-20T04:41:44.038Z,0
2019-02-20T04:42:44.037Z,0
2019-02-20T04:43:43.751Z,0
2019-02-20T04:44:43.995Z,0
2019-02-20T04:45:43.985Z,0
2019-02-20T04:46:43.950Z,0
2019-02-20T04:47:43.938Z,0
2019-02-20T04:48:43.916Z,0
2019-02-20T04:49:43.905Z,0
2019-02-20T04:50:43.905Z,0
2019-02-20T04:51:43.876Z,0
2019-02-20T04:52:43.848Z,0
2019-02-20T04:53:43.822Z,0
2019-02-20T04:54:43.836Z,0
2019-02-20T04:55:43.788Z,0
2019-02-20T04:56:43.772Z,0
2019-02-20T04:57:44.075Z,0
2019-02-20T04:58:43.563Z,0
2019-02-20T04:59:43.467Z,0
2019-02-20T05:00:43.707Z,0
2019-02-20T05:01:43.685Z,0
2019-02-20T05:02:43.685Z,0
2019-02-20T05:03:43.657Z,0
2019-02-20T05:04:43.740Z,0
2019-02-20T05:05:43.626Z,0
2019-02-20T05:06:43.626Z,0
2019-02-20T05:07:43.582Z,0
2019-02-20T05:08:43.322Z,0
2019-02-20T05:09:44.555Z,0
2019-02-20T05:10:43.301Z,0
2019-02-20T05:11:43.551Z,0
2019-02-20T05:12:43.246Z,0
2019-02-20T05:13:43.468Z,0
2019-02-20T05:14:43.449Z,0
2019-02-20T05:15:43.454Z,0
2019-02-20T05:16:43.172Z,0
2019-02-20T05:17:43.410Z,0
2019-02-20T05:18:43.433Z,0
2019-02-20T05:19:43.361Z,0
2019-02-20T05:20:43.344Z,0
2019-02-20T05:21:43.108Z,0
2019-02-20T05:22:43.055Z,0
2019-02-20T05:23:45.191Z,0
2019-02-20T05:24:43.293Z,0
2019-02-20T05:25:43.265Z,0
2019-02-20T05:26:43.236Z,0
2019-02-20T05:27:42.975Z,0
2019-02-20T05:28:43.206Z,0
2019-02-20T05:29:43.194Z,0
2019-02-20T05:30:42.912Z,0
2019-02-20T05:31:43.152Z,0
2019-02-20T05:32:42.668Z,0
2019-02-20T05:33:43.268Z,0
2019-02-20T05:34:42.858Z,0
2019-02-20T05:35:43.097Z,0
2019-02-20T05:36:42.595Z,0
2019-02-20T05:37:44.519Z,0
2019-02-20T05:38:43.038Z,0
2019-02-20T05:39:43.048Z,0
2019-02-20T05:40:43.001Z,0
2019-02-20T05:41:42.978Z,0
2019-02-20T05:42:42.988Z,0
2019-02-20T05:43:42.945Z,0
2019-02-20T05:44:42.931Z,0
2019-02-20T05:45:42.663Z,4
2019-02-20T05:46:42.888Z,4
2019-02-20T05:47:42.873Z,0
2019-02-20T05:48:43.110Z,4
2019-02-20T05:49:42.856Z,0
2019-02-20T05:50:42.821Z,4
2019-02-20T05:51:42.804Z,4
2019-02-20T05:52:42.569Z,8
2019-02-20T05:53:42.585Z,8
2019-02-20T05:54:42.764Z,8
2019-02-20T05:55:42.736Z,12
2019-02-20T05:56:42.724Z,12
2019-02-20T05:57:43.708Z,12
2019-02-20T05:58:42.675Z,16
2019-02-20T05:59:42.410Z,20
2019-02-20T06:00:42.401Z,24
2019-02-20T06:01:42.406Z,24
2019-02-20T06:02:42.619Z,32
2019-02-20T06:03:42.603Z,32
2019-02-20T06:04:42.589Z,40
2019-02-20T06:05:42.557Z,44
2019-02-20T06:06:42.547Z,52
2019-02-20T06:07:42.538Z,60
2019-02-20T06:08:42.300Z,68
2019-02-20T06:09:42.505Z,80
2019-02-20T06:10:42.475Z,88
2019-02-20T06:11:42.456Z,104
2019-02-20T06:12:42.454Z,116
2019-02-20T06:13:42.416Z,132
2019-02-20T06:14:42.411Z,140
2019-02-20T06:15:43.096Z,152
2019-02-20T06:16:42.361Z,156
2019-02-20T06:17:42.346Z,164
2019-02-20T06:18:42.372Z,180
2019-02-20T06:19:42.310Z,200
2019-02-20T06:20:42.310Z,216
2019-02-20T06:21:42.287Z,232
2019-02-20T06:22:42.373Z,256
2019-02-20T06:23:42.244Z,284
2019-02-20T06:24:51.061Z,320
2019-02-20T06:25:42.311Z,348
2019-02-20T06:26:42.190Z,372
2019-02-20T06:27:42.177Z,400
2019-02-20T06:28:42.150Z,432
2019-02-20T06:29:41.892Z,460
2019-02-20T06:30:42.124Z,484
2019-02-20T06:31:42.115Z,508
2019-02-20T06:32:42.089Z,540
2019-02-20T06:33:42.076Z,564
2019-02-20T06:34:42.054Z,596
2019-02-20T06:35:42.034Z,612
2019-02-20T06:36:42.031Z,636
2019-02-20T06:37:41.768Z,672
2019-02-20T06:38:41.786Z,700
2019-02-20T06:39:41.728Z,728
2019-02-20T06:40:41.963Z,736
2019-02-20T06:41:46.480Z,744
2019-02-20T06:42:41.914Z,756
2019-02-20T06:43:41.894Z,776
2019-02-20T06:44:41.874Z,812
2019-02-20T06:45:41.864Z,860
2019-02-20T06:46:41.849Z,904
2019-02-20T06:47:41.820Z,924
2019-02-20T06:48:41.806Z,956
2019-02-20T06:49:41.794Z,976
2019-02-20T06:50:41.520Z,1004
2019-02-20T06:51:41.519Z,1008
2019-02-20T06:52:41.741Z,1004
2019-02-20T06:53:41.718Z,1036
2019-02-20T06:54:41.722Z,1104
2019-02-20T06:55:41.684Z,1144
2019-02-20T06:56:41.670Z,1156
2019-02-20T06:57:41.678Z,1180
2019-02-20T06:58:41.633Z,1216
2019-02-20T06:59:41.369Z,1248
2019-02-20T07:00:41.611Z,1284
2019-02-20T07:01:41.338Z,1340
2019-02-20T07:02:42.972Z,1396
2019-02-20T07:03:41.543Z,1468
2019-02-20T07:04:41.532Z,1552
2019-02-20T07:05:41.275Z,1632
2019-02-20T07:06:41.503Z,1700
2019-02-20T07:07:41.490Z,1760
2019-02-20T07:08:40.965Z,1856
2019-02-20T07:09:41.452Z,2024
2019-02-20T07:10:41.423Z,2180
2019-02-20T07:11:41.457Z,2276
2019-02-20T07:12:41.402Z,2300
2019-02-20T07:13:41.389Z,2296
2019-02-20T07:14:41.351Z,2360
2019-02-20T07:15:41.341Z,2404
2019-02-20T07:16:41.332Z,2404
2019-02-20T07:17:41.312Z,2408
2019-02-20T07:18:41.332Z,2456
2019-02-20T07:19:41.269Z,2452
2019-02-20T07:20:41.248Z,2392
2019-02-20T07:21:41.240Z,2348
2019-02-20T07:22:40.989Z,2328
2019-02-20T07:23:40.967Z,2416
2019-02-20T07:24:41.222Z,2528
2019-02-20T07:25:41.175Z,2592
2019-02-20T07:26:41.194Z,2716
2019-02-20T07:27:41.131Z,2900
2019-02-20T07:28:41.125Z,3040
2019-02-20T07:29:40.852Z,3104
2019-02-20T07:30:41.109Z,3116
2019-02-20T07:31:41.092Z,3040
2019-02-20T07:32:41.102Z,3248
2019-02-20T07:33:41.065Z,3396
2019-02-20T07:34:41.029Z,3364
2019-02-20T07:35:41.015Z,3416
2019-02-20T07:36:40.991Z,3436
2019-02-20T07:37:40.973Z,3424
2019-02-20T07:38:40.706Z,3364
2019-02-20T07:39:40.938Z,3240
2019-02-20T07:40:40.926Z,3024
2019-02-20T07:41:40.653Z,2796
2019-02-20T07:42:40.895Z,2528
2019-02-20T07:43:40.873Z,2276
2019-02-20T07:44:40.894Z,2172
2019-02-20T07:45:40.593Z,2160
2019-02-20T07:46:40.819Z,2236
2019-02-20T07:47:40.798Z,2400
2019-02-20T07:48:40.789Z,2652
2019-02-20T07:49:40.523Z,3048
2019-02-20T07:50:40.532Z,3368
2019-02-20T07:51:40.766Z,3236
2019-02-20T07:52:40.486Z,3500
2019-02-20T07:53:40.208Z,3496
2019-02-20T07:54:40.710Z,3236
2019-02-20T07:55:40.177Z,3012
2019-02-20T07:56:40.659Z,3304
2019-02-20T07:57:40.655Z,3400
2019-02-20T07:58:40.624Z,3812
2019-02-20T07:59:40.611Z,4048
2019-02-20T08:00:40.605Z,4220
2019-02-20T08:01:40.590Z,4216
2019-02-20T08:02:40.558Z,4200
2019-02-20T08:03:40.538Z,4096
2019-02-20T08:04:40.298Z,3988
2019-02-20T08:05:40.274Z,3976
2019-02-20T08:06:40.484Z,3672
2019-02-20T08:07:40.254Z,3376
2019-02-20T08:08:40.461Z,3164
2019-02-20T08:09:40.192Z,3336
2019-02-20T08:10:40.425Z,3612
2019-02-20T08:11:40.424Z,3956
2019-02-20T08:12:40.157Z,4200
2019-02-20T08:13:46.637Z,4176
2019-02-20T08:14:40.381Z,4096
2019-02-20T08:15:40.348Z,4012
2019-02-20T08:16:40.081Z,3892
2019-02-20T08:17:40.319Z,3716
2019-02-20T08:18:40.299Z,3596
2019-02-20T08:19:40.296Z,3596
2019-02-20T08:20:40.273Z,3684
2019-02-20T08:21:40.254Z,3732
2019-02-20T08:22:39.984Z,3820
2019-02-20T08:23:40.220Z,3956
2019-02-20T08:24:40.255Z,4156
2019-02-20T08:25:40.180Z,4412
2019-02-20T08:26:40.175Z,4720
2019-02-20T08:27:40.149Z,5032
2019-02-20T08:28:40.160Z,5272
2019-02-20T08:29:40.120Z,5480
2019-02-20T08:30:40.104Z,5636
2019-02-20T08:31:40.091Z,5736
2019-02-20T08:32:40.089Z,5844
2019-02-20T08:33:39.816Z,5896
2019-02-20T08:34:40.056Z,5948
2019-02-20T08:35:40.036Z,6004
2019-02-20T08:36:40.031Z,5908
2019-02-20T08:37:39.992Z,5744
2019-02-20T08:38:39.742Z,5580
2019-02-20T08:39:39.957Z,5468
2019-02-20T08:40:40.041Z,5356
2019-02-20T08:41:39.942Z,5356
2019-02-20T08:42:40.635Z,5380
2019-02-20T08:43:39.406Z,5400
2019-02-20T08:44:39.899Z,5464
2019-02-20T08:45:39.879Z,5508
2019-02-20T08:46:39.899Z,5488
2019-02-20T08:47:39.581Z,5468
2019-02-20T08:48:39.840Z,5492
2019-02-20T08:49:39.631Z,5572
2019-02-20T08:50:39.783Z,5640
2019-02-20T08:51:39.773Z,5716
2019-02-20T08:52:39.807Z,5800
2019-02-20T08:53:39.504Z,5876
2019-02-20T08:54:39.736Z,5992
2019-02-20T08:55:39.725Z,6120
2019-02-20T08:56:39.749Z,6192
2019-02-20T08:57:39.690Z,6160
2019-02-20T08:58:39.665Z,6092
2019-02-20T08:59:39.413Z,6016
2019-02-20T09:00:39.395Z,5988
2019-02-20T09:01:39.373Z,6028
2019-02-20T09:02:39.618Z,6068
2019-02-20T09:03:39.587Z,6052
2019-02-20T09:04:39.587Z,5972
2019-02-20T09:05:41.383Z,5896
2019-02-20T09:06:39.539Z,5828
2019-02-20T09:07:39.525Z,5796
2019-02-20T09:08:39.521Z,5788
2019-02-20T09:09:39.497Z,5764
2019-02-20T09:10:39.478Z,5700
2019-02-20T09:11:39.216Z,5648
2019-02-20T09:12:39.450Z,5576
2019-02-20T09:13:39.433Z,5516
2019-02-20T09:14:39.422Z,5524
2019-02-20T09:15:39.407Z,5456
2019-02-20T09:16:39.407Z,5348
2019-02-20T09:17:40.533Z,5224
2019-02-20T09:18:39.362Z,5096
2019-02-20T09:19:39.388Z,4940
2019-02-20T09:20:39.369Z,4880
2019-02-20T09:21:39.327Z,4808
2019-02-20T09:22:39.623Z,4756
2019-02-20T09:23:39.282Z,4764
2019-02-20T09:24:39.276Z,4740
2019-02-20T09:25:48.421Z,4756
2019-02-20T09:26:39.263Z,4808
2019-02-20T09:27:39.240Z,4888
2019-02-20T09:28:39.609Z,4948
2019-02-20T09:29:39.200Z,5008
2019-02-20T09:30:38.959Z,5064
2019-02-20T09:31:39.200Z,5100
2019-02-20T09:32:39.155Z,5120
2019-02-20T09:33:39.138Z,5136
2019-02-20T09:34:38.887Z,5212
2019-02-20T09:35:39.107Z,5244
2019-02-20T09:36:39.124Z,5212
2019-02-20T09:37:39.086Z,5144
2019-02-20T09:38:39.064Z,5128
2019-02-20T09:39:39.061Z,5152
2019-02-20T09:40:39.185Z,5176
2019-02-20T09:41:39.032Z,5124
2019-02-20T09:42:39.019Z,5076
2019-02-20T09:43:39.022Z,5048
2019-02-20T09:44:38.986Z,5040
2019-02-20T09:45:49.172Z,5048
2019-02-20T09:46:38.718Z,5112
2019-02-20T09:47:38.957Z,5164
2019-02-20T09:48:38.934Z,5208
2019-02-20T09:49:38.920Z,5248
2019-02-20T09:50:38.897Z,5292
2019-02-20T09:51:38.883Z,5388
2019-02-20T09:52:38.882Z,5412
2019-02-20T09:53:38.858Z,5436
2019-02-20T09:54:38.843Z,5500
2019-02-20T09:55:38.574Z,5452
2019-02-20T09:56:38.586Z,5348
2019-02-20T09:57:38.807Z,5264
2019-02-20T09:58:38.789Z,5248
2019-02-20T09:59:38.528Z,5292
2019-02-20T10:00:38.753Z,5284
2019-02-20T10:01:39.361Z,5220
2019-02-20T10:02:38.721Z,5168
2019-02-20T10:03:38.464Z,5104
2019-02-20T10:04:38.709Z,5016
2019-02-20T10:05:38.698Z,4936
2019-02-20T10:06:38.668Z,4916
2019-02-20T10:07:38.159Z,5000
2019-02-20T10:08:38.398Z,4968
2019-02-20T10:09:39.117Z,4980
2019-02-20T10:10:38.611Z,4992
2019-02-20T10:11:38.598Z,4948
2019-02-20T10:12:38.576Z,4896
2019-02-20T10:13:38.660Z,4848
2019-02-20T10:14:40.178Z,4900
2019-02-20T10:15:38.548Z,5012
2019-02-20T10:16:38.526Z,5028
2019-02-20T10:17:38.270Z,5124
2019-02-20T10:18:38.544Z,5228
2019-02-20T10:19:38.481Z,5328
2019-02-20T10:20:38.469Z,5372
2019-02-20T10:21:38.459Z,5452
2019-02-20T10:22:38.455Z,5472
2019-02-20T10:23:38.183Z,5440
2019-02-20T10:24:38.418Z,5460
2019-02-20T10:25:38.409Z,5464
2019-02-20T10:26:38.385Z,5528
2019-02-20T10:27:38.384Z,5580
2019-02-20T10:28:38.375Z,5568
2019-02-20T10:29:38.353Z,5536
2019-02-20T10:30:37.865Z,5528
2019-02-20T10:31:38.320Z,5488
2019-02-20T10:32:38.316Z,5412
2019-02-20T10:33:38.312Z,5484
2019-02-20T10:34:38.284Z,5616
2019-02-20T10:35:38.271Z,5688
2019-02-20T10:36:38.253Z,5796
2019-02-20T10:37:38.257Z,5864
2019-02-20T10:38:37.975Z,5948
2019-02-20T10:39:38.213Z,6076
2019-02-20T10:40:37.952Z,6116
2019-02-20T10:41:38.233Z,6184
2019-02-20T10:42:38.175Z,6272
2019-02-20T10:43:38.182Z,6240
2019-02-20T10:44:38.153Z,6260
2019-02-20T10:45:38.136Z,6124
2019-02-20T10:46:37.625Z,6124
2019-02-20T10:47:37.610Z,6068
2019-02-20T10:48:38.148Z,5920
2019-02-20T10:49:38.086Z,5724
2019-02-20T10:50:38.076Z,5436
2019-02-20T10:51:38.089Z,5156
2019-02-20T10:52:38.068Z,5008
2019-02-20T10:53:38.034Z,4880
2019-02-20T10:54:38.059Z,4684
2019-02-20T10:55:37.754Z,4652
2019-02-20T10:56:37.749Z,4720
2019-02-20T10:57:37.737Z,4820
2019-02-20T10:58:37.961Z,4824
2019-02-20T10:59:37.703Z,5000
2019-02-20T11:00:37.947Z,4944
2019-02-20T11:01:37.936Z,4932
2019-02-20T11:02:37.922Z,5068
2019-02-20T11:03:37.640Z,5348
2019-02-20T11:04:38.103Z,5832
2019-02-20T11:05:38.234Z,6256
2019-02-20T11:06:37.604Z,6588
2019-02-20T11:07:37.593Z,6940
2019-02-20T11:08:37.835Z,7160
2019-02-20T11:09:39.098Z,7340
2019-02-20T11:10:37.800Z,7364
2019-02-20T11:11:37.786Z,7484
2019-02-20T11:12:37.529Z,7588
2019-02-20T11:13:37.770Z,7728
2019-02-20T11:14:37.946Z,7856
2019-02-20T11:15:37.751Z,8040
2019-02-20T11:16:37.914Z,8304
2019-02-20T11:17:39.767Z,8472
2019-02-20T11:18:37.703Z,8448
2019-02-20T11:19:37.431Z,8236
2019-02-20T11:20:37.671Z,8504
2019-02-20T11:21:37.403Z,8568
2019-02-20T11:22:39.253Z,8632
2019-02-20T11:23:37.631Z,9044
2019-02-20T11:24:37.615Z,9140
2019-02-20T11:25:38.473Z,9412
2019-02-20T11:26:55.103Z,9476
2019-02-20T11:27:39.331Z,10008
2019-02-20T11:28:37.569Z,10192
2019-02-20T11:29:37.565Z,10592
2019-02-20T11:30:37.296Z,10400
2019-02-20T11:31:37.277Z,9904
2019-02-20T11:32:37.515Z,9772
2019-02-20T11:33:37.689Z,9344
2019-02-20T11:34:37.247Z,9176
2019-02-20T11:35:36.982Z,9580
2019-02-20T11:36:37.223Z,9816
2019-02-20T11:37:37.217Z,9416
2019-02-20T11:38:38.116Z,9624
2019-02-20T11:39:44.781Z,9540
2019-02-20T11:40:37.432Z,8160
2019-02-20T11:41:37.415Z,6848
2019-02-20T11:42:37.398Z,6552
2019-02-20T11:43:37.380Z,7532
2019-02-20T11:44:37.377Z,8704
2019-02-20T11:45:36.864Z,8688
2019-02-20T11:46:37.100Z,7476
2019-02-20T11:47:38.446Z,7580
2019-02-20T11:48:37.320Z,8320
2019-02-20T11:49:37.315Z,8556
2019-02-20T11:50:37.299Z,8260
2019-02-20T11:51:37.287Z,8384
2019-02-20T11:52:45.441Z,7892
2019-02-20T11:53:44.001Z,6868
2019-02-20T11:54:36.999Z,6840
2019-02-20T11:55:37.240Z,7044
2019-02-20T11:56:37.226Z,7352
2019-02-20T11:57:36.965Z,7944
2019-02-20T11:58:37.203Z,8052
2019-02-20T11:59:36.951Z,8204
2019-02-20T12:00:37.185Z,8468
2019-02-20T12:01:37.160Z,8884
2019-02-20T12:02:44.773Z,8772
2019-02-20T12:03:37.139Z,8676
2019-02-20T12:04:37.126Z,8416
2019-02-20T12:05:37.128Z,8376
2019-02-20T12:06:37.103Z,8284
2019-02-20T12:07:37.090Z,7988
2019-02-20T12:08:37.081Z,8312
2019-02-20T12:09:36.836Z,8608
2019-02-20T12:10:36.814Z,8868
2019-02-20T12:11:37.044Z,8792
2019-02-20T12:12:37.034Z,8456
2019-02-20T12:13:37.021Z,8148
2019-02-20T12:14:37.015Z,7936
2019-02-20T12:15:37.038Z,7972
2019-02-20T12:16:36.987Z,7588
2019-02-20T12:17:36.975Z,7244
2019-02-20T12:18:36.954Z,6924
2019-02-20T12:19:36.724Z,6664
2019-02-20T12:20:36.933Z,6164
2019-02-20T12:21:36.671Z,5616
2019-02-20T12:22:36.908Z,5656
2019-02-20T12:23:43.911Z,6296
2019-02-20T12:24:37.715Z,6152
2019-02-20T12:25:36.869Z,5460
2019-02-20T12:26:42.369Z,5032
2019-02-20T12:27:37.958Z,4916
2019-02-20T12:28:36.838Z,4896
2019-02-20T12:29:37.306Z,4292
2019-02-20T12:30:38.056Z,3852
2019-02-20T12:31:36.806Z,3516
2019-02-20T12:32:37.870Z,3436
2019-02-20T12:33:36.517Z,3488
2019-02-20T12:34:36.756Z,3660
2019-02-20T12:35:36.498Z,3940
2019-02-20T12:36:36.735Z,4224
2019-02-20T12:37:36.482Z,4384
2019-02-20T12:38:37.205Z,4608
2019-02-20T12:39:36.693Z,4840
2019-02-20T12:40:37.455Z,5092
2019-02-20T12:41:37.470Z,5288
2019-02-20T12:42:36.665Z,5400
2019-02-20T12:43:36.643Z,5572
2019-02-20T12:44:36.632Z,5760
2019-02-20T12:45:36.619Z,5884
2019-02-20T12:46:36.615Z,5960
2019-02-20T12:47:36.590Z,6056
2019-02-20T12:48:36.581Z,6140
2019-02-20T12:49:36.325Z,6220
2019-02-20T12:50:36.332Z,6264
2019-02-20T12:51:36.541Z,6292
2019-02-20T12:52:36.526Z,6560
2019-02-20T12:53:36.512Z,6816
2019-02-20T12:54:36.466Z,6788
2019-02-20T12:55:36.489Z,6744
2019-02-20T12:56:43.593Z,6508
2019-02-20T12:57:36.470Z,6412
2019-02-20T12:58:36.201Z,6540
2019-02-20T12:59:36.785Z,6440
2019-02-20T13:00:36.179Z,6152
2019-02-20T13:01:36.411Z,6004
2019-02-20T13:02:38.437Z,6088
2019-02-20T13:03:36.396Z,6288
2019-02-20T13:04:36.379Z,6500
2019-02-20T13:05:36.364Z,6640
2019-02-20T13:06:37.018Z,6488
2019-02-20T13:07:37.991Z,6284
2019-02-20T13:08:36.327Z,6176
2019-02-20T13:09:36.309Z,5828
2019-02-20T13:10:35.818Z,5656
2019-02-20T13:11:36.505Z,5672
2019-02-20T13:12:37.733Z,5776
2019-02-20T13:13:36.258Z,5840
2019-02-20T13:14:36.271Z,6020
2019-02-20T13:15:36.287Z,6168
2019-02-20T13:16:36.231Z,6100
2019-02-20T13:17:36.271Z,5764
2019-02-20T13:18:36.201Z,5460
2019-02-20T13:19:36.184Z,5312
2019-02-20T13:20:36.188Z,5324
2019-02-20T13:21:35.920Z,5292
2019-02-20T13:22:36.162Z,5160
2019-02-20T13:23:35.906Z,5080
2019-02-20T13:24:35.882Z,4844
2019-02-20T13:25:36.175Z,4700
2019-02-20T13:26:36.101Z,4720
2019-02-20T13:27:36.104Z,4948
2019-02-20T13:28:36.077Z,5244
2019-02-20T13:29:36.064Z,5588
2019-02-20T13:30:35.813Z,5760
2019-02-20T13:31:36.079Z,5836
2019-02-20T13:32:36.066Z,5724
2019-02-20T13:33:36.026Z,5584
2019-02-20T13:34:35.752Z,5336
2019-02-20T13:35:36.028Z,5188
2019-02-20T13:36:35.974Z,5064
2019-02-20T13:37:35.966Z,5040
2019-02-20T13:38:35.950Z,4952
2019-02-20T13:39:36.041Z,5044
2019-02-20T13:40:35.727Z,4728
2019-02-20T13:41:35.942Z,4556
2019-02-20T13:42:36.930Z,4544
2019-02-20T13:43:35.915Z,4724
2019-02-20T13:44:36.213Z,5000
2019-02-20T13:45:36.052Z,5032
2019-02-20T13:46:35.636Z,4956
2019-02-20T13:47:35.882Z,4948
2019-02-20T13:48:37.368Z,5020
2019-02-20T13:49:35.587Z,5116
2019-02-20T13:50:35.830Z,5060
2019-02-20T13:51:35.818Z,5044
2019-02-20T13:52:38.129Z,5004
2019-02-20T13:53:36.121Z,4912
2019-02-20T13:54:38.047Z,4872
2019-02-20T13:55:41.375Z,4920
2019-02-20T13:56:35.533Z,5012